sensor_id;sensor_type;location;lat;lon;timestamp;pressure;altitude;pressure_sealevel;temperature;humidity
30073;BME280;16897;52.422;13.678;2023-03-25T00:02:04;99968.56;;;12.99;52.76
30073;BME280;16897;52.422;13.678;2023-03-25T00:20:07;99978.44;;;12.84;52.83
30073;BME280;16897;52.422;13.678;2023-03-25T00:24:11;99953.88;;;12.74;52.85
30073;BME280;16897;52.422;13.678;2023-03-25T00:28:18;99969.97;;;12.81;52.80
30073;BME280;16897;52.422;13.678;2023-03-25T00:32:23;99961.72;;;12.74;52.94
30073;BME280;16897;52.422;13.678;2023-03-25T00:36:25;99961.28;;;12.69;52.92
30073;BME280;16897;52.422;13.678;2023-03-25T00:40:29;99952.94;;;12.64;52.91
30073;BME280;16897;52.422;13.678;2023-03-25T00:44:31;99975.06;;;12.71;52.95
30073;BME280;16897;52.422;13.678;2023-03-25T00:48:33;99937.88;;;12.44;53.06
30073;BME280;16897;52.422;13.678;2023-03-25T00:52:35;99982.25;;;12.69;52.96
30073;BME280;16897;52.422;13.678;2023-03-25T00:56:37;99976.94;;;12.58;53.09
30073;BME280;16897;52.422;13.678;2023-03-25T01:00:38;99981.03;;;12.62;53.04
30073;BME280;16897;52.422;13.678;2023-03-25T01:04:40;99974.47;;;12.56;53.07
30073;BME280;16897;52.422;13.678;2023-03-25T01:08:45;99980.88;;;12.63;53.04
30073;BME280;16897;52.422;13.678;2023-03-25T01:12:47;99980.06;;;12.63;53.11
30073;BME280;16897;52.422;13.678;2023-03-25T01:16:49;99970.66;;;12.60;53.20
30073;BME280;16897;52.422;13.678;2023-03-25T01:20:51;99968.88;;;12.61;53.07
30073;BME280;16897;52.422;13.678;2023-03-25T01:24:52;99975.66;;;12.63;53.19
30073;BME280;16897;52.422;13.678;2023-03-25T01:28:53;99953.03;;;12.51;53.12
30073;BME280;16897;52.422;13.678;2023-03-25T01:32:55;99960.31;;;12.59;53.18
30073;BME280;16897;52.422;13.678;2023-03-25T01:36:57;99942.16;;;12.45;53.16
30073;BME280;16897;52.422;13.678;2023-03-25T01:40:58;99945.66;;;12.56;53.08
30073;BME280;16897;52.422;13.678;2023-03-25T01:45:14;99943.03;;;12.56;53.10
30073;BME280;16897;52.422;13.678;2023-03-25T01:49:20;99937.31;;;12.51;53.17
30073;BME280;16897;52.422;13.678;2023-03-25T01:53:26;99928.13;;;12.46;53.20
30073;BME280;16897;52.422;13.678;2023-03-25T01:57:28;99902.63;;;12.25;53.24
30073;BME280;16897;52.422;13.678;2023-03-25T02:01:31;99933.25;;;12.47;53.07
30073;BME280;16897;52.422;13.678;2023-03-25T02:05:50;99881.41;;;12.17;53.30
30073;BME280;16897;52.422;13.678;2023-03-25T02:09:52;99931.69;;;12.45;52.96
30073;BME280;16897;52.422;13.678;2023-03-25T02:14:01;99929.53;;;12.38;53.16
30073;BME280;16897;52.422;13.678;2023-03-25T02:43:31;99866.22;;;12.22;53.26
30073;BME280;16897;52.422;13.678;2023-03-25T02:47:39;99870.47;;;12.23;53.38
30073;BME280;16897;52.422;13.678;2023-03-25T02:51:51;99864.31;;;12.24;53.24
30073;BME280;16897;52.422;13.678;2023-03-25T02:55:57;99858.34;;;12.22;53.22
30073;BME280;16897;52.422;13.678;2023-03-25T03:00:00;99849.53;;;12.23;53.33
30073;BME280;16897;52.422;13.678;2023-03-25T03:04:08;99856.56;;;12.34;53.22
30073;BME280;16897;52.422;13.678;2023-03-25T03:20:57;99813.25;;;12.07;53.51
30073;BME280;16897;52.422;13.678;2023-03-25T03:29:19;99859.00;;;12.37;53.57
30073;BME280;16897;52.422;13.678;2023-03-25T03:33:34;99814.19;;;12.06;53.59
30073;BME280;16897;52.422;13.678;2023-03-25T03:37:40;99852.44;;;12.31;53.43
30073;BME280;16897;52.422;13.678;2023-03-25T03:41:44;99867.78;;;12.36;53.60
30073;BME280;16897;52.422;13.678;2023-03-25T03:45:50;99866.84;;;12.37;53.65
30073;BME280;16897;52.422;13.678;2023-03-25T03:49:56;99864.91;;;12.39;53.55
30073;BME280;16897;52.422;13.678;2023-03-25T03:54:11;99881.09;;;12.44;53.61
30073;BME280;16897;52.422;13.678;2023-03-25T03:58:23;99867.66;;;12.37;53.80
30073;BME280;16897;52.422;13.678;2023-03-25T04:02:49;99868.00;;;12.33;53.74
30073;BME280;16897;52.422;13.678;2023-03-25T04:07:15;99882.91;;;12.44;53.63
30073;BME280;16897;52.422;13.678;2023-03-25T04:11:20;99884.78;;;12.42;53.53
30073;BME280;16897;52.422;13.678;2023-03-25T04:15:24;99885.75;;;12.40;53.71
30073;BME280;16897;52.422;13.678;2023-03-25T04:19:26;99861.22;;;12.30;53.70
30073;BME280;16897;52.422;13.678;2023-03-25T04:23:28;99876.25;;;12.39;53.70
30073;BME280;16897;52.422;13.678;2023-03-25T04:27:30;99874.47;;;12.40;53.77
30073;BME280;16897;52.422;13.678;2023-03-25T04:31:33;99873.84;;;12.36;53.68
30073;BME280;16897;52.422;13.678;2023-03-25T04:35:34;99856.69;;;12.21;53.79
30073;BME280;16897;52.422;13.678;2023-03-25T04:39:36;99879.47;;;12.43;53.75
30073;BME280;16897;52.422;13.678;2023-03-25T04:43:37;99882.91;;;12.44;53.60
30073;BME280;16897;52.422;13.678;2023-03-25T04:47:47;99874.09;;;12.45;53.68
30073;BME280;16897;52.422;13.678;2023-03-25T04:51:51;99881.50;;;12.51;53.72
30073;BME280;16897;52.422;13.678;2023-03-25T04:55:53;99878.03;;;12.50;53.79
30073;BME280;16897;52.422;13.678;2023-03-25T04:59:55;99883.16;;;12.52;53.79
30073;BME280;16897;52.422;13.678;2023-03-25T05:04:01;99874.47;;;12.51;53.80
30073;BME280;16897;52.422;13.678;2023-03-25T05:08:05;99879.69;;;12.51;53.78
30073;BME280;16897;52.422;13.678;2023-03-25T05:12:07;99874.56;;;12.50;53.75
30073;BME280;16897;52.422;13.678;2023-03-25T05:16:11;99869.91;;;12.42;53.75
30073;BME280;16897;52.422;13.678;2023-03-25T05:20:13;99878.25;;;12.47;53.77
30073;BME280;16897;52.422;13.678;2023-03-25T05:24:15;99877.31;;;12.48;53.71
30073;BME280;16897;52.422;13.678;2023-03-25T05:28:17;99874.09;;;12.45;53.93
30073;BME280;16897;52.422;13.678;2023-03-25T05:32:18;99865.06;;;12.37;53.75
30073;BME280;16897;52.422;13.678;2023-03-25T05:36:21;99815.75;;;12.09;53.84
30073;BME280;16897;52.422;13.678;2023-03-25T05:40:25;99874.31;;;12.42;53.71
30073;BME280;16897;52.422;13.678;2023-03-25T05:44:27;99860.28;;;12.31;53.94
30073;BME280;16897;52.422;13.678;2023-03-25T05:48:29;99872.66;;;12.40;53.89
30073;BME280;16897;52.422;13.678;2023-03-25T05:52:33;99838.97;;;12.13;53.87
30073;BME280;16897;52.422;13.678;2023-03-25T05:56:37;99887.66;;;12.38;53.71
30073;BME280;16897;52.422;13.678;2023-03-25T06:00:38;99897.19;;;12.39;53.97
30073;BME280;16897;52.422;13.678;2023-03-25T06:04:40;99885.16;;;12.37;54.00
30073;BME280;16897;52.422;13.678;2023-03-25T06:08:42;99884.09;;;12.39;54.08
30073;BME280;16897;52.422;13.678;2023-03-25T06:12:46;99870.72;;;12.20;54.04
30073;BME280;16897;52.422;13.678;2023-03-25T06:16:48;99891.97;;;12.39;53.96
30073;BME280;16897;52.422;13.678;2023-03-25T06:20:53;99902.88;;;12.45;54.18
30073;BME280;16897;52.422;13.678;2023-03-25T06:24:58;99910.63;;;12.46;53.99
30073;BME280;16897;52.422;13.678;2023-03-25T06:28:59;99881.09;;;12.33;54.01
30073;BME280;16897;52.422;13.678;2023-03-25T06:33:01;99879.78;;;12.27;54.00
30073;BME280;16897;52.422;13.678;2023-03-25T06:37:06;99869.56;;;12.24;54.10
30073;BME280;16897;52.422;13.678;2023-03-25T06:41:07;99920.53;;;12.54;54.09
30073;BME280;16897;52.422;13.678;2023-03-25T06:45:09;99921.47;;;12.53;53.99
30073;BME280;16897;52.422;13.678;2023-03-25T06:49:24;99908.84;;;12.47;53.97
30073;BME280;16897;52.422;13.678;2023-03-25T06:53:30;99921.34;;;12.54;54.17
30073;BME280;16897;52.422;13.678;2023-03-25T06:57:31;99914.91;;;12.47;54.17
30073;BME280;16897;52.422;13.678;2023-03-25T07:01:35;99921.13;;;12.57;54.08
30073;BME280;16897;52.422;13.678;2023-03-25T07:05:37;99920.88;;;12.60;54.11
30073;BME280;16897;52.422;13.678;2023-03-25T07:09:41;99915.78;;;12.59;54.06
30073;BME280;16897;52.422;13.678;2023-03-25T07:13:42;99903.75;;;12.56;54.13
30073;BME280;16897;52.422;13.678;2023-03-25T07:17:44;99920.31;;;12.68;54.05
30073;BME280;16897;52.422;13.678;2023-03-25T07:21:49;99923.50;;;12.72;54.16
30073;BME280;16897;52.422;13.678;2023-03-25T07:25:50;99914.81;;;12.71;54.13
30073;BME280;16897;52.422;13.678;2023-03-25T07:29:52;99924.72;;;12.79;54.11
30073;BME280;16897;52.422;13.678;2023-03-25T07:33:54;99923.88;;;12.78;54.24
30073;BME280;16897;52.422;13.678;2023-03-25T07:37:55;99915.06;;;12.79;54.24
30073;BME280;16897;52.422;13.678;2023-03-25T07:41:57;99917.81;;;12.78;54.30
30073;BME280;16897;52.422;13.678;2023-03-25T07:46:24;99899.72;;;12.75;54.19
30073;BME280;16897;52.422;13.678;2023-03-25T07:50:26;99928.41;;;12.99;54.38
30073;BME280;16897;52.422;13.678;2023-03-25T07:54:27;99872.22;;;12.69;54.26
30073;BME280;16897;52.422;13.678;2023-03-25T07:58:29;99887.53;;;12.85;54.28
30073;BME280;16897;52.422;13.678;2023-03-25T08:02:30;99931.94;;;13.20;54.42
30073;BME280;16897;52.422;13.678;2023-03-25T08:06:32;99937.00;;;13.35;54.44
30073;BME280;16897;52.422;13.678;2023-03-25T08:10:34;99937.94;;;13.45;54.24
30073;BME280;16897;52.422;13.678;2023-03-25T08:14:35;99939.69;;;13.56;54.37
30073;BME280;16897;52.422;13.678;2023-03-25T08:18:37;99922.78;;;13.48;54.35
30073;BME280;16897;52.422;13.678;2023-03-25T08:22:39;99904.53;;;13.47;54.39
30073;BME280;16897;52.422;13.678;2023-03-25T08:26:41;99880.22;;;13.34;54.39
30073;BME280;16897;52.422;13.678;2023-03-25T08:30:43;99937.81;;;13.79;54.54
30073;BME280;16897;52.422;13.678;2023-03-25T08:34:45;99923.72;;;13.80;54.40
30073;BME280;16897;52.422;13.678;2023-03-25T08:38:47;99887.56;;;13.62;54.34
30073;BME280;16897;52.422;13.678;2023-03-25T08:42:49;99921.13;;;14.01;54.50
30073;BME280;16897;52.422;13.678;2023-03-25T08:46:50;99931.00;;;14.08;54.31
30073;BME280;16897;52.422;13.678;2023-03-25T08:50:52;99916.72;;;14.01;54.25
30073;BME280;16897;52.422;13.678;2023-03-25T08:54:53;99924.38;;;14.04;54.16
30073;BME280;16897;52.422;13.678;2023-03-25T08:58:54;99922.16;;;14.09;54.37
30073;BME280;16897;52.422;13.678;2023-03-25T09:02:56;99930.50;;;14.14;54.29
30073;BME280;16897;52.422;13.678;2023-03-25T09:06:59;99909.22;;;14.17;54.33
30073;BME280;16897;52.422;13.678;2023-03-25T09:11:01;99870.44;;;14.00;54.35
30073;BME280;16897;52.422;13.678;2023-03-25T09:15:03;99924.28;;;14.36;54.26
30073;BME280;16897;52.422;13.678;2023-03-25T09:19:05;99911.22;;;14.46;54.21
30073;BME280;16897;52.422;13.678;2023-03-25T09:23:06;99916.09;;;14.51;54.22
30073;BME280;16897;52.422;13.678;2023-03-25T09:27:09;99898.72;;;14.38;54.24
30073;BME280;16897;52.422;13.678;2023-03-25T09:31:11;99919.09;;;14.46;54.04
30073;BME280;16897;52.422;13.678;2023-03-25T09:35:12;99905.69;;;14.49;54.13
30073;BME280;16897;52.422;13.678;2023-03-25T09:39:14;99928.03;;;14.55;54.01
30073;BME280;16897;52.422;13.678;2023-03-25T09:52:02;99921.00;;;14.44;53.90
30073;BME280;16897;52.422;13.678;2023-03-25T09:56:09;99938.06;;;14.50;53.91
30073;BME280;16897;52.422;13.678;2023-03-25T10:00:16;99933.06;;;14.47;53.96
30073;BME280;16897;52.422;13.678;2023-03-25T10:13:30;99928.22;;;14.42;53.81
30073;BME280;16897;52.422;13.678;2023-03-25T10:17:42;99938.91;;;14.50;53.95
30073;BME280;16897;52.422;13.678;2023-03-25T10:21:57;99919.09;;;14.46;53.95
30073;BME280;16897;52.422;13.678;2023-03-25T10:26:08;99925.53;;;14.53;53.86
30073;BME280;16897;52.422;13.678;2023-03-25T10:30:30;99916.47;;;14.67;53.65
30073;BME280;16897;52.422;13.678;2023-03-25T10:34:48;99910.44;;;14.76;53.93
30073;BME280;16897;52.422;13.678;2023-03-25T10:38:52;99894.84;;;14.85;53.69
30073;BME280;16897;52.422;13.678;2023-03-25T10:43:43;99918.81;;;15.01;53.98
30073;BME280;16897;52.422;13.678;2023-03-25T10:47:29;99915.09;;;15.03;53.85
30073;BME280;16897;52.422;13.678;2023-03-25T10:51:33;99889.50;;;15.05;53.83
30073;BME280;16897;52.422;13.678;2023-03-25T10:55:36;99908.63;;;15.17;53.83
30073;BME280;16897;52.422;13.678;2023-03-25T10:59:58;99909.66;;;15.26;53.56
30073;BME280;16897;52.422;13.678;2023-03-25T11:04:00;99887.47;;;15.19;53.54
30073;BME280;16897;52.422;13.678;2023-03-25T11:08:07;99897.88;;;15.30;53.88
30073;BME280;16897;52.422;13.678;2023-03-25T11:12:10;99885.69;;;15.29;53.58
30073;BME280;16897;52.422;13.678;2023-03-25T11:16:11;99883.91;;;15.39;53.56
30073;BME280;16897;52.422;13.678;2023-03-25T11:20:20;99881.13;;;15.41;53.61
30073;BME280;16897;52.422;13.678;2023-03-25T11:24:22;99840.84;;;15.21;53.53
30073;BME280;16897;52.422;13.678;2023-03-25T11:28:43;99895.69;;;15.55;53.39
30073;BME280;16897;52.422;13.678;2023-03-25T11:32:57;99886.97;;;15.54;53.42
30073;BME280;16897;52.422;13.678;2023-03-25T11:37:01;99889.91;;;15.61;53.39
30073;BME280;16897;52.422;13.678;2023-03-25T11:41:06;99866.47;;;15.48;53.36
30073;BME280;16897;52.422;13.678;2023-03-25T11:45:19;99842.91;;;15.46;53.50
30073;BME280;16897;52.422;13.678;2023-03-25T11:49:22;99843.88;;;15.55;53.46
30073;BME280;16897;52.422;13.678;2023-03-25T11:53:25;99866.25;;;15.80;53.54
30073;BME280;16897;52.422;13.678;2023-03-25T11:57:33;99855.84;;;15.88;53.39
30073;BME280;16897;52.422;13.678;2023-03-25T12:01:44;99853.34;;;15.97;53.33
30073;BME280;16897;52.422;13.678;2023-03-25T12:06:20;99870.22;;;16.04;53.34
30073;BME280;16897;52.422;13.678;2023-03-25T12:45:05;99839.19;;;16.07;53.06
30073;BME280;16897;52.422;13.678;2023-03-25T13:02:25;99833.66;;;15.91;52.65
30073;BME280;16897;52.422;13.678;2023-03-25T13:11:06;99799.84;;;15.86;52.55
30073;BME280;16897;52.422;13.678;2023-03-25T13:19:31;99794.53;;;16.06;52.82
30073;BME280;16897;52.422;13.678;2023-03-25T13:23:37;99799.22;;;16.12;52.72
30073;BME280;16897;52.422;13.678;2023-03-25T13:27:40;99800.19;;;16.11;52.48
30073;BME280;16897;52.422;13.678;2023-03-25T13:31:43;99800.91;;;16.13;52.67
30073;BME280;16897;52.422;13.678;2023-03-25T13:35:51;99795.34;;;16.06;52.42
30073;BME280;16897;52.422;13.678;2023-03-25T13:48:21;99770.41;;;16.01;52.70
30073;BME280;16897;52.422;13.678;2023-03-25T13:52:30;99800.59;;;16.16;52.40
30073;BME280;16897;52.422;13.678;2023-03-25T14:02:06;99851.22;;;16.10;52.29
30073;BME280;16897;52.422;13.678;2023-03-25T14:14:46;99937.22;;;15.32;52.03
30073;BME280;16897;52.422;13.678;2023-03-25T14:18:51;99894.94;;;14.73;52.19
30073;BME280;16897;52.422;13.678;2023-03-25T14:22:56;99882.44;;;14.66;52.62
30073;BME280;16897;52.422;13.678;2023-03-25T14:27:28;99873.81;;;14.54;52.46
30073;BME280;16897;52.422;13.678;2023-03-25T14:31:32;99847.03;;;14.39;52.40
30073;BME280;16897;52.422;13.678;2023-03-25T14:39:38;99844.75;;;14.25;52.22
30073;BME280;16897;52.422;13.678;2023-03-25T14:43:45;99846.53;;;14.24;52.37
30073;BME280;16897;52.422;13.678;2023-03-25T14:47:53;99853.44;;;14.25;52.23
30073;BME280;16897;52.422;13.678;2023-03-25T14:51:57;99850.16;;;14.23;52.38
30073;BME280;16897;52.422;13.678;2023-03-25T14:55:59;99835.72;;;14.17;52.27
30073;BME280;16897;52.422;13.678;2023-03-25T15:00:04;99837.13;;;14.22;52.31
30073;BME280;16897;52.422;13.678;2023-03-25T15:08:24;99828.72;;;14.28;52.40
30073;BME280;16897;52.422;13.678;2023-03-25T15:12:27;99777.84;;;13.98;52.47
30073;BME280;16897;52.422;13.678;2023-03-25T15:20:46;99787.88;;;14.14;52.39
30073;BME280;16897;52.422;13.678;2023-03-25T15:24:49;99795.69;;;14.25;52.49
30073;BME280;16897;52.422;13.678;2023-03-25T15:33:28;99801.69;;;14.37;52.66
30073;BME280;16897;52.422;13.678;2023-03-25T15:42:19;99800.72;;;14.38;52.65
30073;BME280;16897;52.422;13.678;2023-03-25T15:50:57;99808.59;;;14.38;52.62
30073;BME280;16897;52.422;13.678;2023-03-25T15:55:08;99787.53;;;14.28;52.69
30073;BME280;16897;52.422;13.678;2023-03-25T15:59:24;99808.34;;;14.41;52.76
30073;BME280;16897;52.422;13.678;2023-03-25T16:03:30;99794.63;;;14.37;52.61
30073;BME280;16897;52.422;13.678;2023-03-25T16:07:34;99750.56;;;14.10;52.69
30073;BME280;16897;52.422;13.678;2023-03-25T16:11:41;99806.69;;;14.40;52.49
30073;BME280;16897;52.422;13.678;2023-03-25T16:15:43;99780.91;;;14.24;52.53
30073;BME280;16897;52.422;13.678;2023-03-25T16:19:53;99812.88;;;14.39;52.65
30073;BME280;16897;52.422;13.678;2023-03-25T16:23:56;99813.97;;;14.36;52.69
30073;BME280;16897;52.422;13.678;2023-03-25T16:27:59;99816.31;;;14.30;52.51
30073;BME280;16897;52.422;13.678;2023-03-25T16:32:03;99832.19;;;14.28;52.69
30073;BME280;16897;52.422;13.678;2023-03-25T16:36:07;99834.69;;;14.30;52.61
30073;BME280;16897;52.422;13.678;2023-03-25T16:40:11;99819.00;;;14.19;52.58
30073;BME280;16897;52.422;13.678;2023-03-25T16:44:21;99792.47;;;13.91;52.70
30073;BME280;16897;52.422;13.678;2023-03-25T16:48:34;99877.22;;;14.24;52.82
30073;BME280;16897;52.422;13.678;2023-03-25T16:52:36;99856.50;;;14.00;52.67
30073;BME280;16897;52.422;13.678;2023-03-25T16:56:38;99856.13;;;14.04;52.57
30073;BME280;16897;52.422;13.678;2023-03-25T17:00:40;99835.66;;;13.87;52.57
30073;BME280;16897;52.422;13.678;2023-03-25T17:04:43;99817.47;;;13.74;52.68
30073;BME280;16897;52.422;13.678;2023-03-25T17:08:49;99855.22;;;13.94;52.65
30073;BME280;16897;52.422;13.678;2023-03-25T17:13:07;99841.63;;;13.89;52.55
30073;BME280;16897;52.422;13.678;2023-03-25T17:21:36;99861.09;;;13.86;52.68
30073;BME280;16897;52.422;13.678;2023-03-25T17:26:02;99859.03;;;13.90;52.69
30073;BME280;16897;52.422;13.678;2023-03-25T17:30:30;99838.94;;;13.79;52.79
30073;BME280;16897;52.422;13.678;2023-03-25T17:34:33;99843.91;;;13.82;52.67
30073;BME280;16897;52.422;13.678;2023-03-25T17:38:44;99837.91;;;13.70;52.63
30073;BME280;16897;52.422;13.678;2023-03-25T17:42:46;99834.00;;;13.65;52.69
30073;BME280;16897;52.422;13.678;2023-03-25T17:46:48;99860.06;;;13.78;52.81
30073;BME280;16897;52.422;13.678;2023-03-25T17:50:54;99848.19;;;13.62;52.66
30073;BME280;16897;52.422;13.678;2023-03-25T17:54:56;99857.97;;;13.60;52.76
30073;BME280;16897;52.422;13.678;2023-03-25T18:03:00;99875.97;;;13.65;52.87
30073;BME280;16897;52.422;13.678;2023-03-25T18:07:01;99859.66;;;13.61;52.79
30073;BME280;16897;52.422;13.678;2023-03-25T18:11:04;99868.56;;;13.70;52.88
30073;BME280;16897;52.422;13.678;2023-03-25T18:15:06;99852.97;;;13.57;52.87
30073;BME280;16897;52.422;13.678;2023-03-25T18:19:16;99867.28;;;13.64;52.88
30073;BME280;16897;52.422;13.678;2023-03-25T18:23:18;99865.75;;;13.62;52.92
30073;BME280;16897;52.422;13.678;2023-03-25T18:27:20;99849.66;;;13.55;52.88
30073;BME280;16897;52.422;13.678;2023-03-25T18:31:21;99831.59;;;13.41;52.88
30073;BME280;16897;52.422;13.678;2023-03-25T18:35:23;99868.97;;;13.54;53.07
30073;BME280;16897;52.422;13.678;2023-03-25T18:39:25;99843.06;;;13.40;52.91
30073;BME280;16897;52.422;13.678;2023-03-25T18:43:27;99816.38;;;13.23;52.88
30073;BME280;16897;52.422;13.678;2023-03-25T18:47:28;99851.38;;;13.45;52.99
30073;BME280;16897;52.422;13.678;2023-03-25T18:51:30;99869.03;;;13.43;52.80
30073;BME280;16897;52.422;13.678;2023-03-25T18:55:33;99863.06;;;13.41;52.94
30073;BME280;16897;52.422;13.678;2023-03-25T18:59:34;99864.28;;;13.37;53.00
30073;BME280;16897;52.422;13.678;2023-03-25T19:03:36;99816.88;;;13.06;52.98
30073;BME280;16897;52.422;13.678;2023-03-25T19:07:40;99852.94;;;13.25;53.11
30073;BME280;16897;52.422;13.678;2023-03-25T19:11:42;99849.03;;;13.19;53.05
30073;BME280;16897;52.422;13.678;2023-03-25T19:15:43;99848.81;;;13.11;53.04
30073;BME280;16897;52.422;13.678;2023-03-25T19:19:45;99848.56;;;13.14;53.26
30073;BME280;16897;52.422;13.678;2023-03-25T19:23:47;99798.34;;;12.87;53.08
30073;BME280;16897;52.422;13.678;2023-03-25T19:27:48;99840.84;;;13.13;53.14
30073;BME280;16897;52.422;13.678;2023-03-25T19:31:49;99829.28;;;13.04;53.17
30073;BME280;16897;52.422;13.678;2023-03-25T19:35:52;99880.16;;;13.13;53.20
30073;BME280;16897;52.422;13.678;2023-03-25T19:39:58;99903.84;;;13.11;53.12
30073;BME280;16897;52.422;13.678;2023-03-25T19:43:59;99886.69;;;12.96;53.06
30073;BME280;16897;52.422;13.678;2023-03-25T19:48:01;99884.47;;;12.91;53.20
30073;BME280;16897;52.422;13.678;2023-03-25T19:52:02;99896.84;;;12.78;53.21
30073;BME280;16897;52.422;13.678;2023-03-25T19:56:04;99864.34;;;12.69;53.28
30073;BME280;16897;52.422;13.678;2023-03-25T20:00:07;99880.28;;;12.66;53.37
30073;BME280;16897;52.422;13.678;2023-03-25T20:04:12;99881.72;;;12.59;53.29
30073;BME280;16897;52.422;13.678;2023-03-25T20:08:14;99872.19;;;12.47;53.35
30073;BME280;16897;52.422;13.678;2023-03-25T20:12:16;99869.69;;;12.45;53.26
30073;BME280;16897;52.422;13.678;2023-03-25T20:16:17;99872.44;;;12.44;53.32
30073;BME280;16897;52.422;13.678;2023-03-25T20:20:19;99823.16;;;12.26;53.47
30073;BME280;16897;52.422;13.678;2023-03-25T20:24:21;99825.97;;;12.23;53.49
30073;BME280;16897;52.422;13.678;2023-03-25T20:28:22;99841.09;;;12.31;53.35
30073;BME280;16897;52.422;13.678;2023-03-25T20:32:24;99842.41;;;12.25;53.41
30073;BME280;16897;52.422;13.678;2023-03-25T20:36:26;99833.00;;;12.23;53.35
30073;BME280;16897;52.422;13.678;2023-03-25T20:40:27;99837.41;;;12.22;53.37
30073;BME280;16897;52.422;13.678;2023-03-25T20:44:29;99826.69;;;12.14;53.31
30073;BME280;16897;52.422;13.678;2023-03-25T20:48:31;99785.97;;;11.87;53.37
30073;BME280;16897;52.422;13.678;2023-03-25T20:52:34;99824.78;;;12.05;53.42
30073;BME280;16897;52.422;13.678;2023-03-25T20:56:36;99856.94;;;12.18;53.41
30073;BME280;16897;52.422;13.678;2023-03-25T21:00:38;99834.19;;;12.07;53.38
30073;BME280;16897;52.422;13.678;2023-03-25T21:04:39;99838.56;;;12.07;53.37
30073;BME280;16897;52.422;13.678;2023-03-25T21:08:41;99839.03;;;12.01;53.40
30073;BME280;16897;52.422;13.678;2023-03-25T21:12:43;99846.16;;;11.99;53.33
30073;BME280;16897;52.422;13.678;2023-03-25T21:16:45;99855.69;;;12.00;53.38
30073;BME280;16897;52.422;13.678;2023-03-25T21:20:48;99850.72;;;11.97;53.40
30073;BME280;16897;52.422;13.678;2023-03-25T21:24:49;99845.81;;;11.92;53.54
30073;BME280;16897;52.422;13.678;2023-03-25T21:28:51;99823.03;;;11.81;53.50
30073;BME280;16897;52.422;13.678;2023-03-25T21:32:53;99830.16;;;11.79;53.54
30073;BME280;16897;52.422;13.678;2023-03-25T21:36:55;99847.09;;;11.86;53.46
30073;BME280;16897;52.422;13.678;2023-03-25T21:40:58;99850.03;;;11.82;53.43
30073;BME280;16897;52.422;13.678;2023-03-25T21:45:00;99834.06;;;11.73;53.57
30073;BME280;16897;52.422;13.678;2023-03-25T21:49:03;99836.34;;;11.78;53.73
30073;BME280;16897;52.422;13.678;2023-03-25T21:53:04;99825.63;;;11.70;53.65
30073;BME280;16897;52.422;13.678;2023-03-25T21:57:06;99833.25;;;11.73;53.42
30073;BME280;16897;52.422;13.678;2023-03-25T22:01:10;99839.78;;;11.79;53.71
30073;BME280;16897;52.422;13.678;2023-03-25T22:05:14;99844.03;;;11.68;53.64
30073;BME280;16897;52.422;13.678;2023-03-25T22:09:15;99821.06;;;11.61;53.62
30073;BME280;16897;52.422;13.678;2023-03-25T22:13:17;99832.84;;;11.66;53.77
30073;BME280;16897;52.422;13.678;2023-03-25T22:17:18;99838.94;;;11.67;53.82
30073;BME280;16897;52.422;13.678;2023-03-25T22:21:26;99785.91;;;11.29;53.82
30073;BME280;16897;52.422;13.678;2023-03-25T22:25:29;99849.81;;;11.61;53.71
30073;BME280;16897;52.422;13.678;2023-03-25T22:29:31;99805.53;;;11.35;53.74
30073;BME280;16897;52.422;13.678;2023-03-25T22:33:34;99824.25;;;11.53;53.80
30073;BME280;16897;52.422;13.678;2023-03-25T22:37:35;99825.31;;;11.50;53.93
30073;BME280;16897;52.422;13.678;2023-03-25T22:41:37;99829.91;;;11.47;53.99
30073;BME280;16897;52.422;13.678;2023-03-25T22:45:39;99782.38;;;11.18;53.85
30073;BME280;16897;52.422;13.678;2023-03-25T22:49:40;99802.50;;;11.28;54.01
30073;BME280;16897;52.422;13.678;2023-03-25T22:53:42;99781.78;;;11.14;53.96
30073;BME280;16897;52.422;13.678;2023-03-25T22:57:44;99804.66;;;11.23;53.88
30073;BME280;16897;52.422;13.678;2023-03-25T23:01:46;99820.69;;;11.30;53.93
30073;BME280;16897;52.422;13.678;2023-03-25T23:09:59;99825.94;;;11.30;53.89
30073;BME280;16897;52.422;13.678;2023-03-25T23:14:09;99833.69;;;11.32;54.12
30073;BME280;16897;52.422;13.678;2023-03-25T23:18:12;99819.09;;;11.16;53.94
30073;BME280;16897;52.422;13.678;2023-03-25T23:22:14;99827.94;;;11.26;54.04
30073;BME280;16897;52.422;13.678;2023-03-25T23:26:19;99838.63;;;11.23;54.23
30073;BME280;16897;52.422;13.678;2023-03-25T23:30:23;99814.38;;;11.21;54.01
30073;BME280;16897;52.422;13.678;2023-03-25T23:34:25;99826.38;;;11.24;54.21
30073;BME280;16897;52.422;13.678;2023-03-25T23:38:27;99831.84;;;11.21;54.10
30073;BME280;16897;52.422;13.678;2023-03-25T23:42:29;99846.47;;;11.23;54.20
30073;BME280;16897;52.422;13.678;2023-03-25T23:46:31;99826.44;;;11.11;54.12
30073;BME280;16897;52.422;13.678;2023-03-25T23:50:32;99815.28;;;10.96;54.25
30073;BME280;16897;52.422;13.678;2023-03-25T23:54:34;99836.16;;;11.09;54.15
30073;BME280;16897;52.422;13.678;2023-03-25T23:58:36;99848.38;;;11.08;54.25
